Time;durP1;ratioP1;P1;durP2;ratioP2;P2;SDS_P1;SDS_P2;PMS_P1;PMS_P2;Temp;Humidity;BMP_temperature;BMP_pressure;BME280_temperature;BME280_humidity;BME280_pressure;Samples;Min_cycle;Max_cycle;Signal;HPM_P1;HPM_P2
2021/12/22 00:00:53;;;;;;;13.75;8.48;;;-3.80;99.90;;;-4.81;100.00;98385.59;4986492;28;20133;-70
2021/12/22 00:03:22;;;;;;;20.40;8.90;;;-3.70;99.90;;;-4.75;100.00;98378.22;4989427;28;20050;-70
2021/12/22 00:05:52;;;;;;;16.10;8.23;;;-3.70;99.90;;;-4.71;100.00;98385.09;4984636;28;20054;-70
2021/12/22 00:08:19;;;;;;;15.48;7.05;;;-3.70;99.90;;;-4.68;100.00;98380.97;4984214;28;20132;-70
2021/12/22 00:10:47;;;;;;;18.27;8.63;;;-3.70;99.90;;;-4.75;100.00;98368.09;4988544;28;20050;-70
2021/12/22 00:13:15;;;;;;;18.83;8.15;;;-3.70;99.90;;;-4.80;100.00;98373.00;4986865;28;20465;-70
2021/12/22 00:15:45;;;;;;;17.45;8.05;;;-3.80;99.90;;;-4.88;100.00;98369.38;4986256;28;20078;-70
2021/12/22 00:18:16;;;;;;;18.92;8.77;;;-3.80;99.90;;;-4.98;100.00;98357.25;4984268;28;20084;-70
2021/12/22 00:20:43;;;;;;;16.55;8.77;;;-3.90;99.90;;;-4.92;100.00;98354.91;4987998;28;20433;-70
2021/12/22 00:23:10;;;;;;;18.60;9.65;;;-3.80;99.90;;;-4.90;100.00;98358.34;4986481;28;20042;-70
2021/12/22 00:25:36;;;;;;;20.00;10.25;;;-3.90;99.90;;;-4.94;100.00;98354.84;4987596;28;20125;-70
2021/12/22 00:28:04;;;;;;;18.42;9.00;;;-3.80;99.90;;;-4.89;100.00;98358.38;4980722;28;20080;-70
2021/12/22 00:30:32;;;;;;;13.02;7.53;;;-3.80;99.90;;;-4.81;100.00;98352.69;4979966;28;20080;-70
2021/12/22 00:33:04;;;;;;;22.52;10.93;;;-3.80;99.90;;;-4.89;100.00;98338.13;4979997;28;20050;-70
2021/12/22 00:35:38;;;;;;;20.95;9.60;;;-3.80;99.90;;;-4.99;100.00;98343.72;4983233;28;20129;-70
2021/12/22 00:38:08;;;;;;;20.98;9.38;;;-3.70;99.90;;;-4.82;100.00;98339.19;4981828;28;20593;-70
2021/12/22 00:40:36;;;;;;;18.15;9.88;;;-3.70;99.90;;;-4.94;100.00;98344.72;4985508;28;20133;-69
2021/12/22 00:43:03;;;;;;;20.80;10.65;;;-3.80;99.90;;;-4.82;100.00;98345.91;4983683;28;20137;-70
2021/12/22 00:45:33;;;;;;;20.92;10.10;;;-3.80;99.90;;;-4.78;100.00;98350.28;4984615;28;20050;-70
2021/12/22 00:48:05;;;;;;;17.15;9.65;;;-3.80;99.90;;;-4.75;100.00;98347.81;4979605;28;20125;-70
2021/12/22 00:50:33;;;;;;;21.92;11.63;;;-3.80;99.90;;;-4.59;100.00;98351.66;4978465;28;20221;-70
2021/12/22 00:53:00;;;;;;;24.10;11.52;;;-3.70;99.90;;;-4.64;100.00;98354.06;4982086;28;20213;-70
2021/12/22 00:55:28;;;;;;;22.75;11.05;;;-3.70;99.90;;;-4.64;100.00;98349.00;4984635;28;20133;-70
2021/12/22 00:57:56;;;;;;;19.42;10.02;;;-3.70;99.90;;;-4.73;100.00;98348.72;4987624;28;20046;-70
2021/12/22 01:00:26;;;;;;;20.90;10.18;;;-3.70;99.90;;;-4.89;100.00;98350.78;4987419;28;20141;-70
2021/12/22 01:02:54;;;;;;;23.17;10.93;;;-3.80;99.90;;;-4.89;100.00;98348.25;4986460;28;20050;-70
2021/12/22 01:05:22;;;;;;;25.73;11.07;;;-3.90;99.90;;;-4.87;100.00;98358.44;4985375;28;20293;-70
2021/12/22 01:07:50;;;;;;;21.83;11.13;;;-3.90;99.90;;;-4.77;100.00;98357.91;4986022;28;20050;-70
2021/12/22 01:10:27;;;;;;;16.50;8.82;;;-3.80;99.90;;;-4.68;100.00;98357.31;4982736;28;20157;-70
2021/12/22 01:12:57;;;;;;;19.13;9.73;;;-3.80;99.90;;;-4.75;100.00;98357.94;4985639;28;20074;-70
2021/12/22 01:15:25;;;;;;;23.45;9.75;;;-3.80;99.90;;;-4.75;100.00;98358.81;4982939;28;20129;-70
2021/12/22 01:18:02;;;;;;;17.73;8.25;;;-3.80;99.90;;;-4.75;100.00;98361.34;4981870;28;20142;-70
2021/12/22 01:20:36;;;;;;;21.85;10.45;;;-3.80;99.90;;;-4.75;100.00;98368.94;4981814;28;20459;-70
2021/12/22 01:23:04;;;;;;;21.58;10.73;;;-3.80;99.90;;;-4.79;100.00;98369.66;4980039;28;20054;-70
2021/12/22 01:25:42;;;;;;;23.73;11.45;;;-3.90;99.90;;;-4.91;100.00;98375.19;4979265;28;20138;-70
2021/12/22 01:28:11;;;;;;;18.05;9.35;;;-3.90;99.90;;;-4.95;100.00;98375.06;4980482;28;20141;-70
2021/12/22 01:30:43;;;;;;;24.40;12.00;;;-3.90;99.90;;;-4.95;100.00;98375.94;4986389;28;20125;-70
2021/12/22 01:33:20;;;;;;;20.58;10.90;;;-4.00;99.90;;;-5.04;100.00;98380.69;4990339;28;20074;-70
2021/12/22 01:35:47;;;;;;;23.88;11.77;;;-4.00;99.90;;;-5.07;100.00;98375.53;4987661;28;20043;-70
2021/12/22 01:38:14;;;;;;;28.58;11.57;;;-4.00;99.90;;;-5.11;100.00;98384.72;4986282;28;20129;-70
2021/12/22 01:40:44;;;;;;;23.90;11.90;;;-4.00;99.90;;;-5.08;100.00;98379.75;4972907;28;20128;-70
2021/12/22 01:43:16;;;;;;;21.08;9.63;;;-4.00;99.90;;;-4.96;100.00;98374.19;4988718;28;20125;-70
2021/12/22 01:49:10;;;;;;;22.40;11.52;;;-4.00;99.90;;;-5.02;100.00;98376.53;4987849;28;20046;-70
2021/12/22 01:52:01;;;;;;;22.98;11.20;;;-4.00;99.90;;;-5.08;100.00;98377.22;4973209;28;20118;-70
2021/12/22 01:54:39;;;;;;;21.02;9.15;;;-4.00;99.90;;;-5.02;100.00;98381.59;4987125;28;20444;-70
2021/12/22 01:57:11;;;;;;;19.83;10.25;;;;;;;-5.03;100.00;98386.63;4983083;28;20527;-70
2021/12/22 01:59:40;;;;;;;18.00;10.20;;;-4.10;99.90;;;-5.22;100.00;98386.03;4988451;28;20169;-70
2021/12/22 02:02:11;;;;;;;28.77;13.18;;;-4.20;99.90;;;-5.39;100.00;98392.22;4986406;28;20082;-70
2021/12/22 02:04:40;;;;;;;26.27;12.20;;;-4.20;99.90;;;-5.40;100.00;98396.41;4988136;28;20070;-70
2021/12/22 02:07:09;;;;;;;23.55;11.85;;;-4.30;99.90;;;-5.37;100.00;98405.78;4989736;28;20467;-70
2021/12/22 02:12:11;;;;;;;23.95;11.70;;;-4.30;99.90;;;-5.40;100.00;98396.41;4988284;28;20181;-70
2021/12/22 02:14:40;;;;;;;26.65;12.07;;;-4.20;99.90;;;-5.28;100.00;98399.34;4991501;28;20129;-70
2021/12/22 02:17:10;;;;;;;26.15;12.15;;;-4.20;99.90;;;-5.34;100.00;98394.06;4990059;28;20140;-70
2021/12/22 02:19:43;;;;;;;28.98;13.00;;;-4.30;99.90;;;-5.32;100.00;98392.44;4986600;28;20170;-70
2021/12/22 02:22:14;;;;;;;20.08;10.07;;;-4.30;99.90;;;-5.37;100.00;98393.97;4991886;28;21928;-70
2021/12/22 02:25:02;;;;;;;18.15;10.02;;;-4.30;99.90;;;-5.30;100.00;98389.97;4992582;28;20133;-70
2021/12/22 02:27:38;;;;;;;18.77;9.68;;;-4.30;99.90;;;-5.22;100.00;98388.56;4989022;28;20138;-70
2021/12/22 02:30:14;;;;;;;27.38;10.65;;;-4.20;99.90;;;-5.29;100.00;98384.97;4992285;28;20396;-70
2021/12/22 02:35:44;;;;;;;21.45;9.90;;;-4.30;99.90;;;-5.41;100.00;98376.97;4974462;28;20066;-70
2021/12/22 02:38:17;;;;;;;24.08;10.27;;;-4.30;99.90;;;-5.33;100.00;98375.56;4980126;28;20146;-70
2021/12/22 02:40:51;;;;;;;20.95;10.52;;;-4.30;99.90;;;-5.31;100.00;98366.34;4990833;28;20066;-70
2021/12/22 02:43:22;;;;;;;22.27;10.70;;;-4.30;99.90;;;-5.43;100.00;98375.19;4990471;28;20173;-70
2021/12/22 02:45:50;;;;;;;21.83;9.73;;;-4.30;99.90;;;-5.47;100.00;98375.09;4990864;28;20077;-70
2021/12/22 02:48:18;;;;;;;21.55;10.43;;;-4.40;99.90;;;-5.38;100.00;98372.03;4987837;28;20297;-70
2021/12/22 02:50:45;;;;;;;23.98;11.63;;;-4.40;99.90;;;-5.51;100.00;98365.69;4989530;28;20145;-70
2021/12/22 02:53:15;;;;;;;26.00;12.02;;;-4.30;99.90;;;-5.55;100.00;98363.00;4988135;28;20064;-70
2021/12/22 02:58:34;;;;;;;31.52;16.05;;;-4.30;99.90;;;-5.49;100.00;98348.88;4984805;28;20502;-70
2021/12/22 03:01:10;;;;;;;24.02;12.40;;;-4.20;99.90;;;-5.38;100.00;98355.97;4986920;28;20053;-70
2021/12/22 03:06:26;;;;;;;20.52;11.73;;;-4.30;99.90;;;-5.27;100.00;98347.94;4986342;28;20149;-70
2021/12/22 03:08:53;;;;;;;21.83;11.30;;;-4.20;99.90;;;-5.30;100.00;98362.13;4987503;28;20085;-70
2021/12/22 03:11:20;;;;;;;29.65;13.48;;;-4.30;99.90;;;-5.23;100.00;98351.41;4991661;28;20141;-70
2021/12/22 03:13:47;;;;;;;24.65;12.93;;;-4.30;99.90;;;-5.17;100.00;98345.69;4990702;28;20469;-70
2021/12/22 03:16:18;;;;;;;22.80;12.35;;;-4.20;99.90;;;-5.21;100.00;98339.66;4991447;28;20101;-69
2021/12/22 03:18:46;;;;;;;22.25;10.63;;;-4.20;99.90;;;-5.17;100.00;98338.94;4985602;28;20488;-70
2021/12/22 03:21:21;;;;;;;28.40;13.65;;;-4.20;99.90;;;-5.24;100.00;98336.19;4988705;28;20089;-70
2021/12/22 03:23:51;;;;;;;26.08;13.15;;;-4.20;99.90;;;-5.20;100.00;98343.94;4989789;28;20129;-69
2021/12/22 03:26:21;;;;;;;29.65;14.77;;;-4.10;99.90;;;-5.17;100.00;98350.75;4984717;28;20078;-70
2021/12/22 03:28:49;;;;;;;26.08;13.88;;;-4.10;99.90;;;-5.17;100.00;98353.28;4991075;28;20081;-70
2021/12/22 03:31:17;;;;;;;20.95;9.82;;;-4.20;99.90;;;-5.31;100.00;98346.09;4990964;28;20125;-70
2021/12/22 03:33:45;;;;;;;24.52;12.10;;;-4.20;99.90;;;-5.18;100.00;98354.06;4985994;28;20137;-70
2021/12/22 03:36:12;;;;;;;30.45;14.00;;;-4.20;99.90;;;-5.24;100.00;98351.38;4990705;28;20136;-70
2021/12/22 03:38:39;;;;;;;30.65;14.73;;;-4.20;99.90;;;-5.20;100.00;98353.16;4988408;28;20081;-70
2021/12/22 03:41:09;;;;;;;27.80;13.43;;;-4.20;99.90;;;-5.32;100.00;98353.63;4988094;28;20381;-70
2021/12/22 03:43:37;;;;;;;28.55;15.20;;;-4.20;99.90;;;-5.30;100.00;98354.56;4987125;28;20081;-70
2021/12/22 03:46:05;;;;;;;26.80;13.85;;;-4.30;99.90;;;-5.34;100.00;98347.66;4990911;28;20128;-70
2021/12/22 03:48:32;;;;;;;26.20;14.25;;;-4.30;99.90;;;-5.35;100.00;98343.44;4984850;28;20256;-70
2021/12/22 03:51:00;;;;;;;26.75;14.57;;;-4.30;99.90;;;-5.41;100.00;98340.69;4988951;28;20066;-70
2021/12/22 03:53:27;;;;;;;27.92;12.02;;;-4.30;99.90;;;-5.39;100.00;98332.34;4986553;28;20162;-70
2021/12/22 03:55:53;;;;;;;30.17;15.90;;;-4.40;99.90;;;-5.50;100.00;98339.56;4988033;28;20129;-69
2021/12/22 03:58:22;;;;;;;28.95;14.05;;;-4.30;99.90;;;-5.34;100.00;98347.66;4989824;28;20500;-70
2021/12/22 04:00:54;;;;;;;32.05;14.65;;;-4.40;99.90;;;-5.30;100.00;98341.91;4988757;28;20081;-70
2021/12/22 04:03:28;;;;;;;27.90;14.32;;;-4.30;99.90;;;-5.32;100.00;98338.47;4983236;28;20155;-70
2021/12/22 04:05:55;;;;;;;30.75;15.75;;;-4.30;99.90;;;-5.33;100.00;98347.72;4987590;28;20446;-70
2021/12/22 04:08:22;;;;;;;27.42;11.93;;;-4.30;99.90;;;-5.31;100.00;98346.09;4987009;28;20054;-70
2021/12/22 04:10:50;;;;;;;23.77;12.40;;;-4.30;99.90;;;-5.36;100.00;98354.34;4988785;28;20137;-70
2021/12/22 04:13:19;;;;;;;31.23;13.88;;;-4.40;99.90;;;-5.43;100.00;98354.94;4990958;28;20054;-70
2021/12/22 04:15:47;;;;;;;29.98;14.40;;;-4.40;99.90;;;-5.43;100.00;98358.34;4987208;28;20100;-70
2021/12/22 04:18:16;;;;;;;35.50;15.35;;;-4.40;99.90;;;-5.41;100.00;98353.34;4985707;28;20077;-70
2021/12/22 04:20:43;;;;;;;32.10;16.23;;;-4.30;99.90;;;-5.38;100.00;98350.91;4988869;28;20081;-70
2021/12/22 04:23:10;;;;;;;37.33;16.45;;;-4.30;99.90;;;-5.32;100.00;98351.09;4988701;28;20053;-70
2021/12/22 04:25:38;;;;;;;25.52;12.75;;;-4.30;99.90;;;-5.25;100.00;98345.44;4988175;28;20578;-70
2021/12/22 04:28:09;;;;;;;26.98;12.20;;;-4.20;99.90;;;-5.34;100.00;98337.53;4982868;28;20108;-70
2021/12/22 04:30:40;;;;;;;28.50;13.02;;;-4.30;99.90;;;-5.22;100.00;98347.19;4988723;28;20047;-70
2021/12/22 04:33:07;;;;;;;28.05;15.10;;;-4.30;99.90;;;-5.35;100.00;98340.91;4984506;28;20184;-70
2021/12/22 04:35:34;;;;;;;26.17;13.32;;;-4.30;99.90;;;-5.32;100.00;98349.44;4986460;28;20451;-70
2021/12/22 04:38:02;;;;;;;29.65;14.65;;;-4.30;99.90;;;-5.39;100.00;98337.41;4981808;28;20125;-70
2021/12/22 04:40:30;;;;;;;25.90;13.07;;;-4.40;99.90;;;-5.34;100.00;98329.94;4987250;28;20049;-70
2021/12/22 04:42:57;;;;;;;23.58;12.90;;;-4.40;99.90;;;-5.33;100.00;98327.47;4986365;28;20085;-69
2021/12/22 04:45:24;;;;;;;26.63;13.35;;;-4.40;99.90;;;-5.49;100.00;98331.19;4984945;28;20144;-70
2021/12/22 04:47:52;;;;;;;29.02;16.38;;;-4.40;99.90;;;-5.42;100.00;98342.38;4989128;28;20114;-70
2021/12/22 04:50:22;;;;;;;26.20;14.35;;;-4.40;99.90;;;-5.38;100.00;98341.66;4984791;28;20082;-68
2021/12/22 04:52:57;;;;;;;26.88;14.52;;;-4.40;99.90;;;-5.34;100.00;98337.53;4985085;28;20077;-70
2021/12/22 04:55:26;;;;;;;27.20;13.18;;;-4.40;99.90;;;-5.38;100.00;98329.00;4988486;28;20185;-70
2021/12/22 04:57:56;;;;;;;26.60;15.13;;;-4.40;99.90;;;-5.44;100.00;98338.06;4984793;28;20125;-70
2021/12/22 05:00:27;;;;;;;27.50;14.70;;;-4.40;99.90;;;-5.44;100.00;98338.06;4987862;28;20134;-70
2021/12/22 05:02:56;;;;;;;25.80;12.65;;;-4.40;99.90;;;-5.52;100.00;98331.09;4983122;28;20046;-70
2021/12/22 05:05:24;;;;;;;22.60;11.40;;;-4.50;99.90;;;-5.56;100.00;98329.28;4989999;28;20043;-70
2021/12/22 05:07:51;;;;;;;25.23;13.25;;;-4.50;99.90;;;-5.60;100.00;98336.69;4990288;28;20078;-70
2021/12/22 05:10:19;;;;;;;35.67;17.17;;;-4.50;99.90;;;-5.79;100.00;98332.69;4988375;28;20162;-70
2021/12/22 05:12:47;;;;;;;30.15;15.60;;;-4.60;99.90;;;-5.72;100.00;98332.94;4994214;28;20133;-70
2021/12/22 05:15:20;;;;;;;24.15;12.77;;;-4.60;99.90;;;-5.72;100.00;98337.16;4992356;28;20508;-70
2021/12/22 05:20:24;;;;;;;37.38;17.58;;;-4.70;99.90;;;-5.72;100.00;98348.13;4992985;28;20053;-70
2021/12/22 05:22:52;;;;;;;35.90;17.70;;;-4.70;99.90;;;-5.77;100.00;98354.69;4993214;28;20078;-70
2021/12/22 05:25:19;;;;;;;28.55;15.38;;;-4.70;99.90;;;-5.70;100.00;98343.97;4992482;28;20129;-70
2021/12/22 05:27:46;;;;;;;37.10;16.45;;;-4.60;99.90;;;-5.67;100.00;98326.38;4987275;28;20081;-70
2021/12/22 05:30:14;;;;;;;34.15;17.52;;;-4.60;99.90;;;-5.61;100.00;98342.56;4986661;28;20241;-68
2021/12/22 05:32:41;;;;;;;39.45;19.40;;;-4.60;99.90;;;-5.84;100.00;98350.22;4990851;28;20479;-68
2021/12/22 05:35:11;;;;;;;37.50;18.05;;;-4.60;99.90;;;-5.83;100.00;98341.84;4985029;28;20085;-68
2021/12/22 05:37:39;;;;;;;38.45;17.85;;;-4.60;99.90;;;-5.80;100.00;98347.00;4989278;28;20081;-68
2021/12/22 05:40:08;;;;;;;41.75;18.05;;;-4.70;99.90;;;-5.70;100.00;98338.06;4992266;28;20042;-70
2021/12/22 05:42:35;;;;;;;40.70;19.65;;;-4.60;99.90;;;-5.74;100.00;98342.16;4988392;28;20086;-70
2021/12/22 05:45:04;;;;;;;34.35;17.92;;;-4.60;99.90;;;-5.74;100.00;98332.03;4991872;28;20494;-70
2021/12/22 05:47:31;;;;;;;28.77;16.05;;;-4.60;99.90;;;-5.73;100.00;98338.81;4993986;28;20050;-70
2021/12/22 05:49:59;;;;;;;31.88;15.80;;;-4.60;99.90;;;-5.85;100.00;98345.13;4997408;28;20050;-69
2021/12/22 05:52:26;;;;;;;36.70;17.77;;;-4.60;99.90;;;-5.98;100.00;98344.72;4985245;28;20118;-69
2021/12/22 05:54:53;;;;;;;34.97;18.75;;;-4.80;99.90;;;-5.87;100.00;98337.47;4991032;28;20081;-69
2021/12/22 05:57:20;;;;;;;33.42;16.50;;;-4.80;99.90;;;-5.87;100.00;98337.47;4991484;28;20168;-70
2021/12/22 05:59:47;;;;;;;32.17;17.08;;;-4.70;99.90;;;-5.83;100.00;98341.00;4991700;28;20137;-69
2021/12/22 06:02:14;;;;;;;33.58;16.58;;;-4.70;99.90;;;-5.88;100.00;98343.38;4992629;28;20065;-69
2021/12/22 06:04:41;;;;;;;25.42;13.70;;;-4.70;99.90;;;-5.77;100.00;98351.28;4992034;28;20060;-69
2021/12/22 06:07:08;;;;;;;31.80;16.80;;;-4.70;99.90;;;-5.85;100.00;98348.50;4993309;28;20054;-69
2021/12/22 06:09:35;;;;;;;34.35;18.30;;;-4.80;99.90;;;-5.93;100.00;98354.97;4994762;28;20092;-69
2021/12/22 06:12:02;;;;;;;32.67;18.52;;;-4.80;99.90;;;-5.87;100.00;98345.06;4993592;28;20129;-70
2021/12/22 06:14:29;;;;;;;36.70;19.13;;;-4.80;99.90;;;-5.94;100.00;98343.16;4991152;28;20118;-69
2021/12/22 06:16:56;;;;;;;37.03;19.65;;;-4.80;99.90;;;-5.97;100.00;98355.72;4988046;28;20056;-69
2021/12/22 06:19:23;;;;;;;34.05;19.27;;;-4.80;99.90;;;-6.13;100.00;98361.91;4985254;28;20093;-69
2021/12/22 06:21:50;;;;;;;33.15;18.50;;;-4.90;99.90;;;-6.10;100.00;98362.00;4987706;28;20057;-69
2021/12/22 06:24:17;;;;;;;52.55;25.65;;;-4.90;99.90;;;-6.08;100.00;98364.59;4985623;28;20407;-69
2021/12/22 06:26:44;;;;;;;78.85;39.05;;;-4.90;99.90;;;-6.10;100.00;98372.09;4988582;28;20042;-69
2021/12/22 06:29:13;;;;;;;68.03;29.85;;;-4.90;99.90;;;-6.10;100.00;98375.47;4991371;28;20058;-70
2021/12/22 06:31:40;;;;;;;46.22;23.73;;;-4.90;99.90;;;-6.03;100.00;98373.19;4990630;28;20124;-69
2021/12/22 06:34:12;;;;;;;58.97;28.75;;;-4.90;99.90;;;-6.03;100.00;98379.09;4987254;28;20142;-69
2021/12/22 06:36:39;;;;;;;56.03;29.52;;;-4.80;99.90;;;-6.10;100.00;98384.75;4987875;28;20051;-69
2021/12/22 06:39:07;;;;;;;141.52;66.22;;;-4.90;99.90;;;-6.02;100.00;98383.34;4990526;28;20450;-69
2021/12/22 06:41:35;;;;;;;152.15;77.15;;;-4.80;99.90;;;-6.04;100.00;98382.44;4988224;28;20054;-69
2021/12/22 06:44:05;;;;;;;158.65;78.25;;;-4.90;99.90;;;-6.07;100.00;98383.97;4991378;28;20426;-70
2021/12/22 06:46:33;;;;;;;91.88;43.75;;;-4.90;99.90;;;-6.06;100.00;98384.06;4987459;28;20161;-69
2021/12/22 06:49:00;;;;;;;76.32;35.60;;;-4.80;99.90;;;-6.12;100.00;98391.41;4983457;28;20078;-69
2021/12/22 06:51:27;;;;;;;62.00;29.83;;;-4.90;99.90;;;-6.13;100.00;98393.06;4986928;28;20053;-69
2021/12/22 06:53:54;;;;;;;36.25;18.73;;;-5.00;99.90;;;-6.17;100.00;98400.50;4990505;28;20460;-69
2021/12/22 06:56:21;;;;;;;52.75;25.58;;;-5.00;99.90;;;-6.38;100.00;98398.03;4983793;28;20101;-69
2021/12/22 06:58:48;;;;;;;42.53;20.33;;;-5.10;99.90;;;-6.33;100.00;98389.81;4981922;28;20445;-69
2021/12/22 07:01:18;;;;;;;39.15;19.58;;;-5.10;99.90;;;-6.31;100.00;98392.41;4989595;28;20050;-69
2021/12/22 07:03:48;;;;;;;31.30;17.38;;;-5.10;99.90;;;-6.18;100.00;98392.06;4988106;28;20495;-69
2021/12/22 07:06:15;;;;;;;36.53;19.17;;;-5.00;99.90;;;-6.20;100.00;98392.78;4988388;28;20066;-69
2021/12/22 07:08:43;;;;;;;38.70;21.15;;;-5.00;99.90;;;-6.25;100.00;98391.75;4983845;28;20503;-70
2021/12/22 07:11:10;;;;;;;42.45;22.02;;;-5.10;99.90;;;-6.29;100.00;98382.34;4981247;28;20061;-69
2021/12/22 07:13:37;;;;;;;36.00;18.17;;;-5.00;99.90;;;-6.34;100.00;98385.56;4976550;28;20091;-69
2021/12/22 07:16:05;;;;;;;43.97;22.67;;;-5.10;99.90;;;-6.34;100.00;98393.16;5003923;28;20173;-68
2021/12/22 07:18:32;;;;;;;35.42;20.02;;;-5.10;99.90;;;-6.32;100.00;98388.13;4986880;28;20068;-69
2021/12/22 07:21:01;;;;;;;44.05;22.13;;;-5.20;99.90;;;-6.39;100.00;98398.81;4989554;28;20050;-69
2021/12/22 07:23:28;;;;;;;42.38;23.95;;;-5.10;99.90;;;-6.36;100.00;98393.91;4986355;28;20155;-71
2021/12/22 07:25:55;;;;;;;48.97;25.77;;;-5.10;99.90;;;-6.39;100.00;98393.78;4985012;28;20542;-70
2021/12/22 07:28:22;;;;;;;45.58;23.42;;;-5.20;99.90;;;-6.32;100.00;98385.63;4985807;28;20129;-70
2021/12/22 07:30:49;;;;;;;49.00;25.70;;;-5.10;99.90;;;-6.33;100.00;98391.47;4985188;28;20085;-70
2021/12/22 07:33:17;;;;;;;42.00;23.60;;;-5.10;99.90;;;-6.34;100.00;98384.69;4983274;28;20089;-70
2021/12/22 07:35:59;;;;;;;52.15;25.70;;;-5.10;99.90;;;-6.27;100.00;98381.63;4985677;28;20069;-70
2021/12/22 07:38:58;;;;;;;44.13;22.98;;;-5.10;99.90;;;-6.29;100.00;98375.63;4988378;28;20128;-70
2021/12/22 07:41:27;;;;;;;42.85;22.30;;;-5.10;99.90;;;-6.27;100.00;98379.09;4982355;28;20521;-70
2021/12/22 07:43:54;;;;;;;45.28;23.67;;;-5.00;99.90;;;-6.22;100.00;98380.09;4988209;28;20524;-70
2021/12/22 07:46:22;;;;;;;49.63;24.33;;;-5.00;99.90;;;-6.23;100.00;98382.56;4985396;28;20076;-70
2021/12/22 07:48:49;;;;;;;40.53;22.92;;;-5.00;99.90;;;-6.11;100.00;98378.84;4983217;28;20121;-70
2021/12/22 07:51:16;;;;;;;46.60;25.90;;;-4.90;99.90;;;-6.11;100.00;98372.91;4986992;28;20078;-70
2021/12/22 07:53:43;;;;;;;42.40;22.42;;;-4.90;99.90;;;-6.11;100.00;98372.91;4982146;28;20084;-70
2021/12/22 07:56:11;;;;;;;45.08;25.42;;;-4.90;99.90;;;-6.12;100.00;98381.28;4981273;28;20118;-70
2021/12/22 07:58:38;;;;;;;47.47;23.77;;;-4.90;99.90;;;-6.18;100.00;98378.53;4977663;28;20128;-70
2021/12/22 08:01:05;;;;;;;36.55;21.88;;;-4.90;99.90;;;-6.19;100.00;98389.47;4980927;28;20081;-70
2021/12/22 08:03:33;;;;;;;38.88;20.77;;;-4.90;99.90;;;-6.15;100.00;98383.72;4983278;28;20360;-70
2021/12/22 08:06:09;;;;;;;40.45;21.73;;;-4.90;99.90;;;-6.08;100.00;98387.34;4985468;28;20213;-70
2021/12/22 08:08:36;;;;;;;43.50;21.42;;;-4.90;99.90;;;-5.94;100.00;98381.09;4983900;28;20114;-70
2021/12/22 08:11:03;;;;;;;37.90;20.23;;;-4.70;99.90;;;-5.97;100.00;98384.38;4986623;28;20128;-70
2021/12/22 08:13:30;;;;;;;44.35;20.08;;;-4.70;99.90;;;-6.03;100.00;98385.81;4983362;28;20054;-70
2021/12/22 08:15:57;;;;;;;35.65;18.20;;;-4.70;99.90;;;-5.96;100.00;98387.75;4986835;28;20129;-70
2021/12/22 08:18:24;;;;;;;36.95;18.70;;;-4.70;99.90;;;-5.87;100.00;98393.09;4986154;28;20046;-70
2021/12/22 08:20:51;;;;;;;32.05;18.00;;;-4.60;99.90;;;-5.84;100.00;98388.13;4985760;28;20486;-70
2021/12/22 08:23:19;;;;;;;39.30;19.50;;;-4.60;99.90;;;-5.78;100.00;98387.50;4988227;28;20073;-70
2021/12/22 08:25:47;;;;;;;39.95;20.63;;;-4.60;99.90;;;-5.58;100.00;98383.16;4985264;28;20066;-70
2021/12/22 08:28:14;;;;;;;43.33;23.10;;;-4.50;99.90;;;-5.51;100.00;98388.44;4982698;28;20499;-70
2021/12/22 08:30:42;;;;;;;36.58;19.00;;;-4.40;99.90;;;-5.54;100.00;98382.41;4983853;28;20050;-70
2021/12/22 08:33:19;;;;;;;35.22;18.35;;;-4.30;99.90;;;-5.52;100.00;98383.34;4987734;28;20101;-70
2021/12/22 08:38:53;;;;;;;33.33;16.45;;;-4.20;99.90;;;-5.47;100.00;98381.84;4982638;28;20458;-70
2021/12/22 08:41:31;;;;;;;36.50;17.65;;;-4.20;99.90;;;-5.38;100.00;98374.56;4986489;28;20057;-70
2021/12/22 08:44:04;;;;;;;34.97;18.48;;;-4.10;99.90;;;-5.23;100.00;98380.91;4984740;28;20141;-70
2021/12/22 08:46:33;;;;;;;45.60;22.02;;;-4.00;99.90;;;-5.26;100.00;98374.94;4982594;28;20138;-70
2021/12/22 08:49:04;;;;;;;43.05;22.50;;;-4.00;99.90;;;-5.18;100.00;98376.84;4986361;28;20121;-70
2021/12/22 08:51:32;;;;;;;33.78;18.05;;;-3.90;99.90;;;-5.13;100.00;98373.69;4986778;28;20041;-70
2021/12/22 08:54:00;;;;;;;36.05;17.00;;;-3.80;99.90;;;-4.91;100.00;98371.81;4976540;28;20377;-70
2021/12/22 08:56:28;;;;;;;38.88;20.10;;;-3.80;99.90;;;-4.92;100.00;98370.09;4988399;28;20125;-70
2021/12/22 08:58:56;;;;;;;40.55;21.30;;;-3.70;99.90;;;-4.90;100.00;98368.50;4986441;28;20088;-70
2021/12/22 09:01:26;;;;;;;40.38;21.98;;;-3.70;99.90;;;-4.90;100.00;98366.81;4983414;28;20498;-70
2021/12/22 09:03:53;;;;;;;36.78;19.13;;;-3.60;99.90;;;-4.84;100.00;98368.66;4984729;28;20076;-70
2021/12/22 09:06:20;;;;;;;36.35;20.80;;;-3.60;99.90;;;-4.73;100.00;98354.66;4986362;28;20132;-70
2021/12/22 09:08:47;;;;;;;36.47;18.38;;;-3.50;99.90;;;-4.63;100.00;98363.38;4988753;28;20129;-71
2021/12/22 09:11:14;;;;;;;38.80;20.90;;;-3.50;99.90;;;-4.50;100.00;98364.59;4983046;28;20216;-70
2021/12/22 09:13:42;;;;;;;37.70;19.75;;;-3.40;99.90;;;-4.53;100.00;98354.41;4985557;28;20081;-70
2021/12/22 09:16:10;;;;;;;33.50;19.27;;;-3.30;99.90;;;-4.54;100.00;98347.59;4985566;28;20056;-70
2021/12/22 09:18:38;;;;;;;38.58;19.88;;;-3.30;99.90;;;-4.35;100.00;98354.94;4984925;28;20125;-71
2021/12/22 09:21:08;;;;;;;34.42;18.15;;;-3.30;99.90;;;-4.43;100.00;98354.69;4979945;28;20232;-70
2021/12/22 09:23:36;;;;;;;40.58;20.65;;;-3.20;99.90;;;-4.43;100.00;98349.63;4985871;28;20085;-70
2021/12/22 09:26:03;;;;;;;38.05;21.58;;;-3.20;99.90;;;-4.36;100.00;98347.28;4981080;28;20154;-70
2021/12/22 09:28:30;;;;;;;35.95;20.52;;;-3.20;99.90;;;-4.35;100.00;98362.53;4987364;28;20074;-70
2021/12/22 09:30:57;;;;;;;39.13;21.88;;;-3.10;99.90;;;-4.30;100.00;98360.97;4980482;28;20206;-70
2021/12/22 09:33:25;;;;;;;38.08;21.73;;;-3.10;99.90;;;-4.26;100.00;98372.09;4990149;28;20076;-70
2021/12/22 09:35:54;;;;;;;36.75;19.35;;;-3.00;99.90;;;-4.30;100.00;98366.06;4979001;28;20074;-70
2021/12/22 09:38:21;;;;;;;38.67;20.30;;;-3.00;99.90;;;-4.24;100.00;98361.16;4985892;28;20284;-70
2021/12/22 09:40:48;;;;;;;33.63;19.00;;;-2.90;99.90;;;-4.13;100.00;98368.19;4983642;28;20211;-70
2021/12/22 09:43:15;;;;;;;36.88;21.15;;;-2.90;99.90;;;-4.12;100.00;98363.19;4983503;28;20134;-70
2021/12/22 09:45:47;;;;;;;35.33;19.73;;;-2.90;99.90;;;-4.00;100.00;98362.66;4985028;28;20081;-70
2021/12/22 09:48:26;;;;;;;38.40;21.02;;;-2.80;99.90;;;-3.91;100.00;98364.59;4983774;28;20097;-70
2021/12/22 09:53:34;;;;;;;37.20;19.27;;;-2.60;99.90;;;-3.90;100.00;98351.97;4985777;28;20070;-70
2021/12/22 09:56:04;;;;;;;36.05;20.15;;;-2.60;99.90;;;-3.81;100.00;98344.59;4989795;28;20219;-70
2021/12/22 09:58:32;;;;;;;35.08;20.55;;;-2.50;99.90;;;-3.77;100.00;98340.44;4990647;28;20491;-70
2021/12/22 10:00:59;;;;;;;35.72;19.77;;;-2.50;99.90;;;-3.70;100.00;98336.38;4982533;28;20058;-70
2021/12/22 10:03:26;;;;;;;36.03;20.50;;;-2.40;99.90;;;-3.68;100.00;98340.69;4987194;28;20054;-70
2021/12/22 10:05:53;;;;;;;35.13;19.80;;;-2.30;99.90;;;-3.71;100.00;98337.22;4989876;28;20434;-70
2021/12/22 10:08:23;;;;;;;36.80;19.92;;;-2.30;99.90;;;-3.64;100.00;98334.03;4989085;28;20125;-70
2021/12/22 10:11:06;;;;;;;30.05;17.77;;;-2.30;99.90;;;-3.59;100.00;98332.44;4988068;28;20129;-70
2021/12/22 10:13:44;;;;;;;33.83;19.83;;;-2.20;99.90;;;-3.54;100.00;98332.56;4987430;28;20146;-70
2021/12/22 10:16:17;;;;;;;32.60;18.75;;;-2.20;99.90;;;-3.52;100.00;98324.16;4989600;28;20157;-70
2021/12/22 10:18:45;;;;;;;;;;;-2.20;99.90;;;-3.42;100.00;98315.09;4981329;28;20058;-70
2021/12/22 10:21:16;;;;;;;32.60;16.45;;;-2.10;99.90;;;-3.43;100.00;98305.78;4980785;28;19921;-70
2021/12/22 10:23:48;;;;;;;32.97;17.38;;;-2.00;99.90;;;-3.34;100.00;98307.69;4990637;28;20078;-70
2021/12/22 10:26:26;;;;;;;38.22;18.90;;;-2.00;99.90;;;-3.20;100.00;98302.09;4987760;28;20047;-70
2021/12/22 10:29:06;;;;;;;32.47;17.73;;;-1.90;99.90;;;-3.22;100.00;98305.44;4987267;28;20046;-70
2021/12/22 10:31:45;;;;;;;30.55;17.48;;;-1.80;99.90;;;-3.24;100.00;98302.00;4989698;28;20077;-70